sensor_id;sensor_type;location;lat;lon;timestamp;pressure;altitude;pressure_sealevel;temperature;humidity
56392;BME280;76123;53.584;9.978;2024-02-26T00:00:49;100436.72;;;3.64;94.96
56392;BME280;76123;53.584;9.978;2024-02-26T00:03:15;100442.91;;;3.61;94.67
56392;BME280;76123;53.584;9.978;2024-02-26T00:05:42;100435.13;;;3.58;94.65
56392;BME280;76123;53.584;9.978;2024-02-26T00:08:09;100447.38;;;3.56;94.45
56392;BME280;76123;53.584;9.978;2024-02-26T00:10:35;100443.97;;;3.54;95.27
56392;BME280;76123;53.584;9.978;2024-02-26T00:13:02;100455.41;;;3.50;95.25
56392;BME280;76123;53.584;9.978;2024-02-26T00:15:28;100453.81;;;3.44;94.66
56392;BME280;76123;53.584;9.978;2024-02-26T00:17:56;100445.19;;;3.41;94.58
56392;BME280;76123;53.584;9.978;2024-02-26T00:20:23;100447.03;;;3.37;95.36
56392;BME280;76123;53.584;9.978;2024-02-26T00:22:49;100445.38;;;3.35;94.97
56392;BME280;76123;53.584;9.978;2024-02-26T00:25:16;100447.25;;;3.29;95.16
56392;BME280;76123;53.584;9.978;2024-02-26T00:27:43;100442.97;;;3.27;94.69
56392;BME280;76123;53.584;9.978;2024-02-26T00:30:10;100449.13;;;3.24;94.95
56392;BME280;76123;53.584;9.978;2024-02-26T00:32:37;100441.31;;;3.23;95.43
56392;BME280;76123;53.584;9.978;2024-02-26T00:35:06;100441.38;;;3.21;94.97
56392;BME280;76123;53.584;9.978;2024-02-26T00:37:34;100446.56;;;3.23;95.31
56392;BME280;76123;53.584;9.978;2024-02-26T00:40:01;100437.88;;;3.22;95.71
56392;BME280;76123;53.584;9.978;2024-02-26T00:42:28;100438.88;;;3.17;94.84
56392;BME280;76123;53.584;9.978;2024-02-26T00:44:54;100438.03;;;3.15;94.72
56392;BME280;76123;53.584;9.978;2024-02-26T00:47:21;100445.97;;;3.11;95.06
56392;BME280;76123;53.584;9.978;2024-02-26T00:49:47;100447.78;;;3.09;95.35
56392;BME280;76123;53.584;9.978;2024-02-26T00:52:15;100453.13;;;3.05;95.52
56392;BME280;76123;53.584;9.978;2024-02-26T00:54:42;100450.47;;;3.06;95.31
56392;BME280;76123;53.584;9.978;2024-02-26T00:57:08;100450.53;;;3.03;94.96
56392;BME280;76123;53.584;9.978;2024-02-26T00:59:35;100451.38;;;3.05;94.70
56392;BME280;76123;53.584;9.978;2024-02-26T01:02:02;100456.81;;;2.98;94.77
56392;BME280;76123;53.584;9.978;2024-02-26T01:04:30;100455.94;;;2.97;94.80
56392;BME280;76123;53.584;9.978;2024-02-26T01:06:57;100448.13;;;2.95;94.82
56392;BME280;76123;53.584;9.978;2024-02-26T01:09:24;100447.41;;;2.90;94.74
56392;BME280;76123;53.584;9.978;2024-02-26T01:11:50;100451.78;;;2.88;95.17
56392;BME280;76123;53.584;9.978;2024-02-26T01:14:17;100459.72;;;2.85;95.16
56392;BME280;76123;53.584;9.978;2024-02-26T01:16:43;100450.19;;;2.83;95.47
56392;BME280;76123;53.584;9.978;2024-02-26T01:19:10;100451.13;;;2.80;95.34
56392;BME280;76123;53.584;9.978;2024-02-26T01:21:37;100459.91;;;2.77;94.48
56392;BME280;76123;53.584;9.978;2024-02-26T01:24:03;100458.28;;;2.73;94.51
56392;BME280;76123;53.584;9.978;2024-02-26T01:26:31;100466.09;;;2.73;95.38
56392;BME280;76123;53.584;9.978;2024-02-26T01:28:58;100466.22;;;2.69;94.97
56392;BME280;76123;53.584;9.978;2024-02-26T01:31:24;100460.19;;;2.65;95.64
56392;BME280;76123;53.584;9.978;2024-02-26T01:33:51;100462.78;;;2.67;95.31
56392;BME280;76123;53.584;9.978;2024-02-26T01:36:17;100458.50;;;2.63;95.16
56392;BME280;76123;53.584;9.978;2024-02-26T01:38:44;100461.94;;;2.66;95.03
56392;BME280;76123;53.584;9.978;2024-02-26T01:41:11;100451.47;;;2.66;95.77
56392;BME280;76123;53.584;9.978;2024-02-26T01:43:38;100461.94;;;2.66;95.53
56392;BME280;76123;53.584;9.978;2024-02-26T01:46:06;100457.47;;;2.70;95.05
56392;BME280;76123;53.584;9.978;2024-02-26T01:48:35;100456.84;;;2.60;95.15
56392;BME280;76123;53.584;9.978;2024-02-26T01:51:02;100462.88;;;2.62;94.95
56392;BME280;76123;53.584;9.978;2024-02-26T01:53:29;100466.47;;;2.58;95.05
56392;BME280;76123;53.584;9.978;2024-02-26T01:55:56;100468.34;;;2.51;95.40
56392;BME280;76123;53.584;9.978;2024-02-26T01:58:23;100470.13;;;2.51;95.28
56392;BME280;76123;53.584;9.978;2024-02-26T02:00:51;100467.56;;;2.48;95.12
56392;BME280;76123;53.584;9.978;2024-02-26T02:03:17;100482.31;;;2.50;95.28
56392;BME280;76123;53.584;9.978;2024-02-26T02:05:44;100474.44;;;2.52;95.01
56392;BME280;76123;53.584;9.978;2024-02-26T02:08:11;100474.69;;;2.41;94.59
56392;BME280;76123;53.584;9.978;2024-02-26T02:10:38;100475.53;;;2.43;94.87
56392;BME280;76123;53.584;9.978;2024-02-26T02:13:05;100471.72;;;2.56;93.88
56392;BME280;76123;53.584;9.978;2024-02-26T02:15:31;100470.03;;;2.54;93.74
56392;BME280;76123;53.584;9.978;2024-02-26T02:17:59;100471.13;;;2.45;93.93
56392;BME280;76123;53.584;9.978;2024-02-26T02:20:31;100465.13;;;2.41;94.15
56392;BME280;76123;53.584;9.978;2024-02-26T02:22:58;100456.56;;;2.35;94.37
56392;BME280;76123;53.584;9.978;2024-02-26T02:25:25;100459.28;;;2.30;94.46
56392;BME280;76123;53.584;9.978;2024-02-26T02:27:53;100462.88;;;2.24;94.37
56392;BME280;76123;53.584;9.978;2024-02-26T02:30:20;100462.00;;;2.25;95.04
56392;BME280;76123;53.584;9.978;2024-02-26T02:32:47;100471.56;;;2.25;94.41
56392;BME280;76123;53.584;9.978;2024-02-26T02:35:14;100469.94;;;2.19;95.16
56392;BME280;76123;53.584;9.978;2024-02-26T02:37:42;100473.34;;;2.23;94.55
56392;BME280;76123;53.584;9.978;2024-02-26T02:40:09;100476.13;;;2.17;95.21
56392;BME280;76123;53.584;9.978;2024-02-26T02:42:35;100473.56;;;2.12;94.57
56392;BME280;76123;53.584;9.978;2024-02-26T02:45:02;100475.28;;;2.15;94.50
56392;BME280;76123;53.584;9.978;2024-02-26T02:47:29;100473.47;;;2.18;95.03
56392;BME280;76123;53.584;9.978;2024-02-26T02:49:55;100476.00;;;2.21;94.26
56392;BME280;76123;53.584;9.978;2024-02-26T02:52:22;100480.31;;;2.24;93.59
56392;BME280;76123;53.584;9.978;2024-02-26T02:54:50;100483.72;;;2.26;93.26
56392;BME280;76123;53.584;9.978;2024-02-26T02:57:16;100481.19;;;2.23;93.41
56392;BME280;76123;53.584;9.978;2024-02-26T02:59:43;100481.34;;;2.17;93.83
56392;BME280;76123;53.584;9.978;2024-02-26T03:02:10;100483.13;;;2.13;93.43
56392;BME280;76123;53.584;9.978;2024-02-26T03:04:36;100483.25;;;2.08;94.11
56392;BME280;76123;53.584;9.978;2024-02-26T03:07:03;100484.16;;;2.06;93.98
56392;BME280;76123;53.584;9.978;2024-02-26T03:09:29;100492.06;;;2.03;93.93
56392;BME280;76123;53.584;9.978;2024-02-26T03:11:58;100487.88;;;1.94;94.54
56392;BME280;76123;53.584;9.978;2024-02-26T03:14:24;100493.19;;;1.91;94.89
56392;BME280;76123;53.584;9.978;2024-02-26T03:16:53;100491.44;;;1.90;94.70
56392;BME280;76123;53.584;9.978;2024-02-26T03:19:20;100486.06;;;1.98;94.69
56392;BME280;76123;53.584;9.978;2024-02-26T03:21:46;100492.28;;;1.90;94.47
56392;BME280;76123;53.584;9.978;2024-02-26T03:24:13;100489.75;;;1.87;95.05
56392;BME280;76123;53.584;9.978;2024-02-26T03:26:40;100493.25;;;1.88;94.91
56392;BME280;76123;53.584;9.978;2024-02-26T03:29:08;100494.19;;;1.84;94.38
56392;BME280;76123;53.584;9.978;2024-02-26T03:31:34;100492.38;;;1.87;94.39
56392;BME280;76123;53.584;9.978;2024-02-26T03:34:01;100488.84;;;1.90;94.11
56392;BME280;76123;53.584;9.978;2024-02-26T03:36:27;100493.31;;;1.83;94.52
56392;BME280;76123;53.584;9.978;2024-02-26T03:38:54;100503.88;;;1.77;94.81
56392;BME280;76123;53.584;9.978;2024-02-26T03:41:21;100509.09;;;1.77;94.58
56392;BME280;76123;53.584;9.978;2024-02-26T03:43:47;100498.72;;;1.74;94.78
56392;BME280;76123;53.584;9.978;2024-02-26T03:46:15;100503.03;;;1.77;94.52
56392;BME280;76123;53.584;9.978;2024-02-26T03:48:42;100504.72;;;1.78;94.50
56392;BME280;76123;53.584;9.978;2024-02-26T03:51:09;100505.41;;;1.87;94.09
56392;BME280;76123;53.584;9.978;2024-02-26T03:53:35;100517.75;;;1.78;94.45
56392;BME280;76123;53.584;9.978;2024-02-26T03:56:03;100522.25;;;1.71;94.40
56392;BME280;76123;53.584;9.978;2024-02-26T03:58:30;100526.63;;;1.69;94.37
56392;BME280;76123;53.584;9.978;2024-02-26T04:00:56;100524.06;;;1.67;95.06
56392;BME280;76123;53.584;9.978;2024-02-26T04:03:24;100538.88;;;1.65;94.62
56392;BME280;76123;53.584;9.978;2024-02-26T04:05:51;100540.59;;;1.68;94.54
56392;BME280;76123;53.584;9.978;2024-02-26T04:08:18;100537.94;;;1.69;94.88
56392;BME280;76123;53.584;9.978;2024-02-26T04:10:45;100542.19;;;1.75;94.65
56392;BME280;76123;53.584;9.978;2024-02-26T04:13:11;100548.38;;;1.69;94.26
56392;BME280;76123;53.584;9.978;2024-02-26T04:15:38;100549.28;;;1.67;94.79
56392;BME280;76123;53.584;9.978;2024-02-26T04:18:04;100551.06;;;1.65;94.67
56392;BME280;76123;53.584;9.978;2024-02-26T04:20:32;100551.03;;;1.68;94.53
56392;BME280;76123;53.584;9.978;2024-02-26T04:22:59;100557.09;;;1.68;94.53
56392;BME280;76123;53.584;9.978;2024-02-26T04:25:25;100567.63;;;1.62;94.63
56392;BME280;76123;53.584;9.978;2024-02-26T04:27:53;100569.38;;;1.62;94.79
56392;BME280;76123;53.584;9.978;2024-02-26T04:30:20;100575.50;;;1.61;94.40
56392;BME280;76123;53.584;9.978;2024-02-26T04:32:46;100580.72;;;1.59;94.90
56392;BME280;76123;53.584;9.978;2024-02-26T04:35:13;100579.75;;;1.63;94.26
56392;BME280;76123;53.584;9.978;2024-02-26T04:37:41;100580.66;;;1.64;94.51
56392;BME280;76123;53.584;9.978;2024-02-26T04:40:08;100578.13;;;1.59;94.62
56392;BME280;76123;53.584;9.978;2024-02-26T04:42:35;100594.66;;;1.58;94.62
56392;BME280;76123;53.584;9.978;2024-02-26T04:45:01;100599.91;;;1.56;94.28
56392;BME280;76123;53.584;9.978;2024-02-26T04:47:28;100600.84;;;1.52;94.86
56392;BME280;76123;53.584;9.978;2024-02-26T04:49:55;100592.13;;;1.53;94.83
56392;BME280;76123;53.584;9.978;2024-02-26T04:52:21;100602.66;;;1.49;94.44
56392;BME280;76123;53.584;9.978;2024-02-26T04:54:49;100593.91;;;1.50;94.88
56392;BME280;76123;53.584;9.978;2024-02-26T04:57:16;100608.72;;;1.49;94.93
56392;BME280;76123;53.584;9.978;2024-02-26T04:59:43;100609.53;;;1.51;94.87
56392;BME280;76123;53.584;9.978;2024-02-26T05:02:11;100612.22;;;1.47;94.76
56392;BME280;76123;53.584;9.978;2024-02-26T05:04:37;100610.38;;;1.53;94.61
56392;BME280;76123;53.584;9.978;2024-02-26T05:07:04;100619.13;;;1.49;94.42
56392;BME280;76123;53.584;9.978;2024-02-26T05:09:32;100624.34;;;1.49;94.36
56392;BME280;76123;53.584;9.978;2024-02-26T05:12:00;100621.78;;;1.48;94.33
56392;BME280;76123;53.584;9.978;2024-02-26T05:14:27;100628.72;;;1.47;94.82
56392;BME280;76123;53.584;9.978;2024-02-26T05:16:52;100624.31;;;1.51;94.42
56392;BME280;76123;53.584;9.978;2024-02-26T05:19:19;100625.81;;;1.66;93.80
56392;BME280;76123;53.584;9.978;2024-02-26T05:21:45;100625.13;;;1.54;94.25
56392;BME280;76123;53.584;9.978;2024-02-26T05:24:15;100619.88;;;1.58;94.37
56392;BME280;76123;53.584;9.978;2024-02-26T05:26:42;100625.19;;;1.51;94.05
56392;BME280;76123;53.584;9.978;2024-02-26T05:29:10;100630.44;;;1.48;94.30
56392;BME280;76123;53.584;9.978;2024-02-26T05:31:37;100629.63;;;1.46;94.15
56392;BME280;76123;53.584;9.978;2024-02-26T05:34:03;100637.38;;;1.49;94.34
56392;BME280;76123;53.584;9.978;2024-02-26T05:36:30;100644.38;;;1.49;94.56
56392;BME280;76123;53.584;9.978;2024-02-26T05:38:58;100639.16;;;1.49;94.51
56392;BME280;76123;53.584;9.978;2024-02-26T05:41:25;100647.75;;;1.54;94.08
56392;BME280;76123;53.584;9.978;2024-02-26T05:43:52;100646.84;;;1.56;94.09
56392;BME280;76123;53.584;9.978;2024-02-26T05:46:20;100652.19;;;1.49;94.10
56392;BME280;76123;53.584;9.978;2024-02-26T05:48:50;100648.75;;;1.45;93.96
56392;BME280;76123;53.584;9.978;2024-02-26T05:51:16;100652.19;;;1.47;93.77
56392;BME280;76123;53.584;9.978;2024-02-26T05:53:43;100657.44;;;1.44;93.92
56392;BME280;76123;53.584;9.978;2024-02-26T05:56:10;100664.41;;;1.44;93.79
56392;BME280;76123;53.584;9.978;2024-02-26T05:58:37;100658.97;;;1.59;93.58
56392;BME280;76123;53.584;9.978;2024-02-26T06:01:03;100662.31;;;1.66;92.25
56392;BME280;76123;53.584;9.978;2024-02-26T06:03:31;100665.09;;;1.56;92.81
56392;BME280;76123;53.584;9.978;2024-02-26T06:05:58;100671.97;;;1.61;92.47
56392;BME280;76123;53.584;9.978;2024-02-26T06:08:24;100674.69;;;1.53;92.93
56392;BME280;76123;53.584;9.978;2024-02-26T06:10:51;100669.56;;;1.48;93.38
56392;BME280;76123;53.584;9.978;2024-02-26T06:13:17;100677.34;;;1.50;93.98
56392;BME280;76123;53.584;9.978;2024-02-26T06:15:44;100676.44;;;1.52;93.90
56392;BME280;76123;53.584;9.978;2024-02-26T06:18:10;100683.41;;;1.53;93.66
56392;BME280;76123;53.584;9.978;2024-02-26T06:20:38;100691.13;;;1.58;93.48
56392;BME280;76123;53.584;9.978;2024-02-26T06:23:05;100695.53;;;1.56;93.69
56392;BME280;76123;53.584;9.978;2024-02-26T06:25:32;100693.63;;;1.66;93.14
56392;BME280;76123;53.584;9.978;2024-02-26T06:27:59;100697.16;;;1.62;93.24
56392;BME280;76123;53.584;9.978;2024-02-26T06:30:25;100695.41;;;1.64;93.56
56392;BME280;76123;53.584;9.978;2024-02-26T06:32:52;100694.50;;;1.66;93.23
56392;BME280;76123;53.584;9.978;2024-02-26T06:35:18;100692.56;;;1.76;92.61
56392;BME280;76123;53.584;9.978;2024-02-26T06:37:46;100693.53;;;1.70;91.92
56392;BME280;76123;53.584;9.978;2024-02-26T06:40:15;100691.09;;;1.61;92.52
56392;BME280;76123;53.584;9.978;2024-02-26T06:42:42;100700.63;;;1.64;92.99
56392;BME280;76123;53.584;9.978;2024-02-26T06:45:09;100690.94;;;1.72;92.70
56392;BME280;76123;53.584;9.978;2024-02-26T06:47:35;100701.38;;;1.72;92.53
56392;BME280;76123;53.584;9.978;2024-02-26T06:50:03;100704.94;;;1.65;92.99
56392;BME280;76123;53.584;9.978;2024-02-26T06:52:29;100707.59;;;1.62;92.78
56392;BME280;76123;53.584;9.978;2024-02-26T06:54:57;100713.69;;;1.62;93.45
56392;BME280;76123;53.584;9.978;2024-02-26T06:57:24;100713.53;;;1.71;93.10
56392;BME280;76123;53.584;9.978;2024-02-26T06:59:51;100709.16;;;1.73;92.99
56392;BME280;76123;53.584;9.978;2024-02-26T07:02:17;100711.72;;;1.77;93.37
56392;BME280;76123;53.584;9.978;2024-02-26T07:04:44;100727.38;;;1.75;93.38
56392;BME280;76123;53.584;9.978;2024-02-26T07:07:11;100721.97;;;1.87;91.80
56392;BME280;76123;53.584;9.978;2024-02-26T07:09:37;100723.84;;;1.79;92.81
56392;BME280;76123;53.584;9.978;2024-02-26T07:12:06;100722.91;;;1.82;92.64
56392;BME280;76123;53.584;9.978;2024-02-26T07:14:32;100728.19;;;1.79;92.87
56392;BME280;76123;53.584;9.978;2024-02-26T07:16:59;100733.41;;;1.79;92.13
56392;BME280;76123;53.584;9.978;2024-02-26T07:19:25;100727.41;;;1.73;92.46
56392;BME280;76123;53.584;9.978;2024-02-26T07:21:52;100731.69;;;1.79;92.87
56392;BME280;76123;53.584;9.978;2024-02-26T07:24:18;100732.38;;;1.87;93.29
56392;BME280;76123;53.584;9.978;2024-02-26T07:26:45;100738.38;;;1.94;92.15
56392;BME280;76123;53.584;9.978;2024-02-26T07:29:13;100737.59;;;1.87;92.64
56392;BME280;76123;53.584;9.978;2024-02-26T07:31:39;100740.88;;;2.00;92.64
56392;BME280;76123;53.584;9.978;2024-02-26T07:34:06;100740.91;;;1.99;92.47
56392;BME280;76123;53.584;9.978;2024-02-26T07:36:33;100747.81;;;2.03;92.15
56392;BME280;76123;53.584;9.978;2024-02-26T07:39:00;100745.94;;;2.11;91.80
56392;BME280;76123;53.584;9.978;2024-02-26T07:41:26;100755.44;;;2.14;92.32
56392;BME280;76123;53.584;9.978;2024-02-26T07:43:53;100757.06;;;2.19;92.12
56392;BME280;76123;53.584;9.978;2024-02-26T07:46:21;100752.59;;;2.28;91.65
56392;BME280;76123;53.584;9.978;2024-02-26T07:48:48;100761.34;;;2.25;91.17
56392;BME280;76123;53.584;9.978;2024-02-26T07:51:15;100759.47;;;2.33;92.18
56392;BME280;76123;53.584;9.978;2024-02-26T07:53:42;100769.78;;;2.39;91.96
56392;BME280;76123;53.584;9.978;2024-02-26T07:56:09;100768.69;;;2.51;91.17
56392;BME280;76123;53.584;9.978;2024-02-26T07:58:36;100773.91;;;2.53;89.78
56392;BME280;76123;53.584;9.978;2024-02-26T08:01:02;100784.31;;;2.56;89.74
56392;BME280;76123;53.584;9.978;2024-02-26T08:03:30;100779.19;;;2.48;89.66
56392;BME280;76123;53.584;9.978;2024-02-26T08:05:57;100781.59;;;2.60;89.96
56392;BME280;76123;53.584;9.978;2024-02-26T08:08:24;100778.13;;;2.58;88.50
56392;BME280;76123;53.584;9.978;2024-02-26T08:10:50;100787.84;;;2.52;89.42
56392;BME280;76123;53.584;9.978;2024-02-26T08:13:17;100792.19;;;2.53;89.96
56392;BME280;76123;53.584;9.978;2024-02-26T08:15:43;100791.13;;;2.63;89.35
56392;BME280;76123;53.584;9.978;2024-02-26T08:18:10;100789.47;;;2.59;89.53
56392;BME280;76123;53.584;9.978;2024-02-26T08:20:38;100785.00;;;2.64;90.52
56392;BME280;76123;53.584;9.978;2024-02-26T08:23:04;100792.72;;;2.72;89.54
56392;BME280;76123;53.584;9.978;2024-02-26T08:25:31;100798.72;;;2.75;89.84
56392;BME280;76123;53.584;9.978;2024-02-26T08:27:57;100791.03;;;2.68;89.67
56392;BME280;76123;53.584;9.978;2024-02-26T08:30:24;100797.03;;;2.73;90.46
56392;BME280;76123;53.584;9.978;2024-02-26T08:32:51;100796.97;;;2.77;90.74
56392;BME280;76123;53.584;9.978;2024-02-26T08:35:18;100799.34;;;2.88;91.55
56392;BME280;76123;53.584;9.978;2024-02-26T08:37:46;100808.94;;;2.89;90.00
56392;BME280;76123;53.584;9.978;2024-02-26T08:40:13;100802.69;;;2.97;89.95
56392;BME280;76123;53.584;9.978;2024-02-26T08:42:40;100812.91;;;3.07;89.42
56392;BME280;76123;53.584;9.978;2024-02-26T08:45:07;100809.34;;;3.11;88.08
56392;BME280;76123;53.584;9.978;2024-02-26T08:47:34;100816.25;;;3.16;88.93
56392;BME280;76123;53.584;9.978;2024-02-26T08:50:01;100807.59;;;3.13;87.61
56392;BME280;76123;53.584;9.978;2024-02-26T08:52:27;100818.06;;;3.12;88.60
56392;BME280;76123;53.584;9.978;2024-02-26T08:54:55;100820.75;;;3.07;88.11
56392;BME280;76123;53.584;9.978;2024-02-26T08:57:22;100814.56;;;3.11;89.04
56392;BME280;76123;53.584;9.978;2024-02-26T08:59:49;100817.19;;;3.11;88.69
56392;BME280;76123;53.584;9.978;2024-02-26T09:02:16;100816.06;;;3.23;87.99
56392;BME280;76123;53.584;9.978;2024-02-26T09:04:42;100822.84;;;3.32;87.46
56392;BME280;76123;53.584;9.978;2024-02-26T09:07:09;100819.44;;;3.30;88.47
56392;BME280;76123;53.584;9.978;2024-02-26T09:09:36;100827.13;;;3.36;88.87
56392;BME280;76123;53.584;9.978;2024-02-26T09:12:04;100824.41;;;3.41;88.00
56392;BME280;76123;53.584;9.978;2024-02-26T09:14:31;100826.81;;;3.52;88.29
56392;BME280;76123;53.584;9.978;2024-02-26T09:16:57;100822.38;;;3.55;86.88
56392;BME280;76123;53.584;9.978;2024-02-26T09:19:25;100833.72;;;3.56;87.75
56392;BME280;76123;53.584;9.978;2024-02-26T09:21:52;100837.03;;;3.62;89.33
56392;BME280;76123;53.584;9.978;2024-02-26T09:24:22;100837.69;;;3.72;87.27
56392;BME280;76123;53.584;9.978;2024-02-26T09:26:49;100836.72;;;3.78;88.32
56392;BME280;76123;53.584;9.978;2024-02-26T09:29:17;100839.81;;;3.94;87.25
56392;BME280;76123;53.584;9.978;2024-02-26T09:31:43;100841.41;;;4.01;87.32
56392;BME280;76123;53.584;9.978;2024-02-26T09:34:12;100848.34;;;4.04;87.33
56392;BME280;76123;53.584;9.978;2024-02-26T09:36:39;100848.88;;;4.18;86.72
56392;BME280;76123;53.584;9.978;2024-02-26T09:39:05;100857.41;;;4.26;86.20
56392;BME280;76123;53.584;9.978;2024-02-26T09:41:36;100846.97;;;4.23;86.10
56392;BME280;76123;53.584;9.978;2024-02-26T09:44:04;100852.75;;;4.38;86.33
56392;BME280;76123;53.584;9.978;2024-02-26T09:46:33;100852.66;;;4.42;85.68
56392;BME280;76123;53.584;9.978;2024-02-26T09:49:00;100854.47;;;4.39;84.70
56392;BME280;76123;53.584;9.978;2024-02-26T09:51:27;100855.34;;;4.39;84.90
56392;BME280;76123;53.584;9.978;2024-02-26T09:53:54;100855.47;;;4.33;85.28
56392;BME280;76123;53.584;9.978;2024-02-26T09:56:22;100860.91;;;4.25;85.47
56392;BME280;76123;53.584;9.978;2024-02-26T09:58:50;100864.44;;;4.24;85.87
56392;BME280;76123;53.584;9.978;2024-02-26T10:01:20;100865.28;;;4.26;85.61
56392;BME280;76123;53.584;9.978;2024-02-26T10:03:55;100866.00;;;4.31;85.32
56392;BME280;76123;53.584;9.978;2024-02-26T10:06:23;100866.88;;;4.30;86.07
56392;BME280;76123;53.584;9.978;2024-02-26T10:08:51;100870.34;;;4.32;86.67
56392;BME280;76123;53.584;9.978;2024-02-26T10:11:18;100872.97;;;4.32;86.91
56392;BME280;76123;53.584;9.978;2024-02-26T10:13:45;100876.16;;;4.45;85.08
56392;BME280;76123;53.584;9.978;2024-02-26T10:16:12;100877.63;;;4.56;86.11
56392;BME280;76123;53.584;9.978;2024-02-26T10:18:50;100873.28;;;4.55;86.32
56392;BME280;76123;53.584;9.978;2024-02-26T10:21:18;100876.63;;;4.61;86.53
56392;BME280;76123;53.584;9.978;2024-02-26T10:23:45;100877.34;;;4.66;85.28
56392;BME280;76123;53.584;9.978;2024-02-26T10:26:13;100876.00;;;4.86;85.31
56392;BME280;76123;53.584;9.978;2024-02-26T10:28:41;100879.38;;;4.90;84.70
56392;BME280;76123;53.584;9.978;2024-02-26T10:31:09;100886.16;;;4.98;84.06
56392;BME280;76123;53.584;9.978;2024-02-26T10:33:37;100878.97;;;5.05;84.16
56392;BME280;76123;53.584;9.978;2024-02-26T10:36:06;100885.94;;;5.06;84.56
56392;BME280;76123;53.584;9.978;2024-02-26T10:38:34;100883.06;;;5.15;84.93
56392;BME280;76123;53.584;9.978;2024-02-26T10:41:01;100880.97;;;5.28;85.51
56392;BME280;76123;53.584;9.978;2024-02-26T10:43:28;100885.78;;;5.44;83.53
56392;BME280;76123;53.584;9.978;2024-02-26T10:45:55;100896.97;;;5.49;83.15
56392;BME280;76123;53.584;9.978;2024-02-26T10:48:22;100890.75;;;5.53;82.66
56392;BME280;76123;53.584;9.978;2024-02-26T10:50:49;100891.31;;;5.64;82.34
56392;BME280;76123;53.584;9.978;2024-02-26T10:53:20;100895.31;;;5.76;81.48
56392;BME280;76123;53.584;9.978;2024-02-26T10:55:48;100898.59;;;5.84;81.85
56392;BME280;76123;53.584;9.978;2024-02-26T10:58:16;100894.81;;;5.93;81.17
56392;BME280;76123;53.584;9.978;2024-02-26T11:00:43;100896.91;;;6.12;81.50
56392;BME280;76123;53.584;9.978;2024-02-26T11:03:11;100893.59;;;6.33;80.05
56392;BME280;76123;53.584;9.978;2024-02-26T11:05:40;100894.22;;;6.41;80.56
56392;BME280;76123;53.584;9.978;2024-02-26T11:08:08;100895.94;;;6.69;79.89
56392;BME280;76123;53.584;9.978;2024-02-26T11:10:38;100902.19;;;6.92;81.30
56392;BME280;76123;53.584;9.978;2024-02-26T11:13:07;100897.31;;;7.06;79.25
56392;BME280;76123;53.584;9.978;2024-02-26T11:15:36;100892.53;;;7.41;77.94
56392;BME280;76123;53.584;9.978;2024-02-26T11:18:04;100883.78;;;7.64;77.81
56392;BME280;76123;53.584;9.978;2024-02-26T11:20:32;100886.56;;;7.83;74.68
56392;BME280;76123;53.584;9.978;2024-02-26T11:22:59;100890.22;;;7.79;76.82
56392;BME280;76123;53.584;9.978;2024-02-26T11:25:26;100889.41;;;8.01;76.07
56392;BME280;76123;53.584;9.978;2024-02-26T11:27:56;100897.44;;;8.42;76.64
56392;BME280;76123;53.584;9.978;2024-02-26T11:30:26;100889.66;;;8.39;74.54
56392;BME280;76123;53.584;9.978;2024-02-26T11:32:55;100897.00;;;8.53;73.72
56392;BME280;76123;53.584;9.978;2024-02-26T11:35:22;100889.94;;;8.76;73.58
56392;BME280;76123;53.584;9.978;2024-02-26T11:37:56;100894.59;;;8.90;71.86
56392;BME280;76123;53.584;9.978;2024-02-26T11:40:24;100893.03;;;8.85;72.82
56392;BME280;76123;53.584;9.978;2024-02-26T11:42:51;100902.59;;;9.09;71.80
56392;BME280;76123;53.584;9.978;2024-02-26T11:45:51;100900.41;;;9.18;72.27
56392;BME280;76123;53.584;9.978;2024-02-26T11:48:25;100907.53;;;9.16;72.58
56392;BME280;76123;53.584;9.978;2024-02-26T11:50:52;100909.72;;;9.07;73.53
56392;BME280;76123;53.584;9.978;2024-02-26T11:53:20;100910.69;;;9.04;71.49
56392;BME280;76123;53.584;9.978;2024-02-26T11:55:46;100911.34;;;8.68;72.11
56392;BME280;76123;53.584;9.978;2024-02-26T11:58:13;100908.06;;;8.63;73.07
56392;BME280;76123;53.584;9.978;2024-02-26T12:00:40;100913.88;;;8.49;73.82
56392;BME280;76123;53.584;9.978;2024-02-26T12:03:08;100915.13;;;8.62;72.74
56392;BME280;76123;53.584;9.978;2024-02-26T12:05:37;100909.03;;;8.60;74.60
56392;BME280;76123;53.584;9.978;2024-02-26T12:08:06;100915.34;;;8.56;74.04
56392;BME280;76123;53.584;9.978;2024-02-26T12:10:35;100918.59;;;8.63;73.51
56392;BME280;76123;53.584;9.978;2024-02-26T12:13:05;100918.03;;;8.55;73.48
56392;BME280;76123;53.584;9.978;2024-02-26T12:15:33;100919.91;;;8.52;73.27
56392;BME280;76123;53.584;9.978;2024-02-26T12:18:03;100926.19;;;8.26;74.94
56392;BME280;76123;53.584;9.978;2024-02-26T12:20:32;100924.53;;;8.24;74.68
56392;BME280;76123;53.584;9.978;2024-02-26T12:22:58;100930.34;;;8.10;75.25
56392;BME280;76123;53.584;9.978;2024-02-26T12:25:27;100929.38;;;8.12;75.88
56392;BME280;76123;53.584;9.978;2024-02-26T12:27:55;100936.91;;;8.22;75.29
56392;BME280;76123;53.584;9.978;2024-02-26T12:30:22;100936.81;;;8.25;76.60
56392;BME280;76123;53.584;9.978;2024-02-26T12:32:50;100936.50;;;8.32;74.33
56392;BME280;76123;53.584;9.978;2024-02-26T12:35:17;100942.91;;;8.25;74.80
56392;BME280;76123;53.584;9.978;2024-02-26T12:37:46;100949.97;;;8.25;74.34
56392;BME280;76123;53.584;9.978;2024-02-26T12:40:13;100949.09;;;8.24;73.59
56392;BME280;76123;53.584;9.978;2024-02-26T12:42:40;100950.56;;;8.09;74.53
56392;BME280;76123;53.584;9.978;2024-02-26T12:45:07;100954.47;;;7.99;74.55
56392;BME280;76123;53.584;9.978;2024-02-26T12:47:36;100960.03;;;7.91;74.71
56392;BME280;76123;53.584;9.978;2024-02-26T12:50:04;100955.91;;;7.84;74.79
56392;BME280;76123;53.584;9.978;2024-02-26T12:52:32;100961.16;;;7.84;75.37
56392;BME280;76123;53.584;9.978;2024-02-26T12:55:01;100967.91;;;7.91;75.61
56392;BME280;76123;53.584;9.978;2024-02-26T12:57:29;100969.72;;;7.91;75.51
56392;BME280;76123;53.584;9.978;2024-02-26T12:59:57;100976.47;;;7.98;75.75